Private Wetterstation Sandau
Wetterdaten: Freitag, 30.03.2012
Datum Zeit Temp. A. Feuchte A. Luftdruck Regen Wind Richtung Richtung Taupunkt Windchill
30.03.2012 00:02 7,4 C 71 % 1012,1 hPa 0,0 l/m 9,7 km/h (2 Bft) NW 315 2,5 C 5,6 C
30.03.2012 00:07 7,4 C 72 % 1012,2 hPa 0,0 l/m 10,4 km/h (2 Bft) N 360 2,7 C 5,4 C
30.03.2012 00:12 7,4 C 72 % 1012,0 hPa 0,0 l/m 9,7 km/h (2 Bft) NW 315 2,7 C 5,6 C
30.03.2012 00:17 7,3 C 72 % 1012,0 hPa 0,0 l/m 18,0 km/h (3 Bft) W 270 2,6 C 4,2 C
30.03.2012 00:22 7,3 C 72 % 1012,1 hPa 0,0 l/m 9,7 km/h (2 Bft) NW 315 2,6 C 5,5 C
30.03.2012 00:27 7,2 C 72 % 1012,0 hPa 0,0 l/m 7,2 km/h (2 Bft) W 270 2,5 C 5,9 C
30.03.2012 00:32 7,2 C 72 % 1012,1 hPa 0,0 l/m 7,9 km/h (2 Bft) NW 315 2,5 C 5,7 C
30.03.2012 00:37 7,1 C 73 % 1012,2 hPa 0,0 l/m 5,0 km/h (1 Bft) W-NW 292 2,6 C 6,5 C
30.03.2012 00:42 7,0 C 73 % 1012,0 hPa 0,0 l/m 7,2 km/h (2 Bft) W 270 2,5 C 5,7 C
30.03.2012 00:47 6,9 C 73 % 1012,1 hPa 0,0 l/m 15,5 km/h (3 Bft) W 270 2,4 C 4,0 C
30.03.2012 00:52 6,9 C 74 % 1012,1 hPa 0,0 l/m 18,4 km/h (3 Bft) W-NW 292 2,6 C 3,6 C
30.03.2012 00:57 6,9 C 75 % 1012,1 hPa 0,0 l/m 6,1 km/h (2 Bft) W 270 2,8 C 5,9 C
30.03.2012 01:02 6,9 C 75 % 1012,0 hPa 0,0 l/m 13,3 km/h (3 Bft) W-NW 292 2,8 C 4,3 C
30.03.2012 01:07 6,9 C 75 % 1012,0 hPa 0,0 l/m 13,7 km/h (3 Bft) NW 315 2,8 C 4,3 C
30.03.2012 01:12 6,9 C 76 % 1012,1 hPa 0,0 l/m 10,1 km/h (2 Bft) W 270 3,0 C 4,9 C
30.03.2012 01:17 6,9 C 76 % 1012,0 hPa 0,0 l/m 7,2 km/h (2 Bft) NW 315 3,0 C 5,6 C
30.03.2012 01:22 6,9 C 77 % 1011,8 hPa 0,0 l/m 10,8 km/h (2 Bft) NW 315 3,2 C 4,8 C
30.03.2012 01:27 7,0 C 77 % 1012,0 hPa 0,0 l/m 11,5 km/h (2 Bft) W-NW 292 3,2 C 4,8 C
30.03.2012 01:32 7,2 C 77 % 1012,0 hPa 0,0 l/m 7,9 km/h (2 Bft) N 360 3,4 C 5,7 C
30.03.2012 01:37 7,2 C 77 % 1011,9 hPa 0,0 l/m 4,7 km/h (1 Bft) NW 315 3,4 C 6,7 C
30.03.2012 01:42 7,3 C 77 % 1012,0 hPa 0,0 l/m 10,1 km/h (2 Bft) NW 315 3,5 C 5,4 C
30.03.2012 01:47 7,3 C 77 % 1012,1 hPa 0,0 l/m 11,9 km/h (2 Bft) NW 315 3,5 C 5,1 C
30.03.2012 01:52 7,3 C 77 % 1012,1 hPa 0,0 l/m 20,5 km/h (4 Bft) NW 315 3,5 C 3,9 C
30.03.2012 01:57 7,4 C 77 % 1012,1 hPa 0,0 l/m 7,2 km/h (2 Bft) NW 315 3,6 C 6,1 C
30.03.2012 02:02 7,4 C 77 % 1012,0 hPa 0,0 l/m 7,2 km/h (2 Bft) W-NW 292 3,6 C 6,1 C
30.03.2012 02:07 7,4 C 77 % 1011,8 hPa 0,0 l/m 21,2 km/h (4 Bft) NW 315 3,6 C 4,0 C
30.03.2012 02:12 7,4 C 77 % 1011,9 hPa 0,0 l/m 10,1 km/h (2 Bft) W-NW 292 3,6 C 5,5 C
30.03.2012 02:17 7,4 C 77 % 1011,7 hPa 0,0 l/m 9,7 km/h (2 Bft) W-NW 292 3,6 C 5,6 C
30.03.2012 02:22 7,3 C 77 % 1011,9 hPa 0,0 l/m 7,9 km/h (2 Bft) W-NW 292 3,5 C 5,9 C
30.03.2012 02:27 7,3 C 77 % 1011,8 hPa 0,0 l/m 16,6 km/h (3 Bft) NW 315 3,5 C 4,4 C
30.03.2012 02:32 7,2 C 77 % 1011,7 hPa 0,0 l/m 10,1 km/h (2 Bft) W-NW 292 3,4 C 5,3 C
30.03.2012 02:37 7,2 C 77 % 1011,6 hPa 0,0 l/m 9,4 km/h (2 Bft) NW 315 3,4 C 5,4 C
30.03.2012 02:42 7,2 C 78 % 1011,7 hPa 0,0 l/m 16,6 km/h (3 Bft) W-NW 292 3,6 C 4,2 C
30.03.2012 02:47 7,1 C 78 % 1011,7 hPa 0,0 l/m 15,8 km/h (3 Bft) W-NW 292 3,5 C 4,2 C
30.03.2012 02:52 7,0 C 78 % 1011,6 hPa 0,0 l/m 18,7 km/h (3 Bft) NW 315 3,4 C 3,7 C
30.03.2012 02:57 6,9 C 78 % 1011,6 hPa 0,0 l/m 22,3 km/h (4 Bft) NW 315 3,3 C 3,2 C
30.03.2012 03:02 6,9 C 78 % 1011,6 hPa 0,0 l/m 16,9 km/h (3 Bft) NW 315 3,3 C 3,8 C
30.03.2012 03:07 6,9 C 79 % 1011,2 hPa 0,0 l/m 14,4 km/h (3 Bft) W 270 3,5 C 4,2 C
30.03.2012 03:12 6,8 C 79 % 1011,4 hPa 0,0 l/m 24,5 km/h (4 Bft) NW 315 3,4 C 2,9 C
30.03.2012 03:17 6,9 C 79 % 1011,4 hPa 0,0 l/m 9,4 km/h (2 Bft) W 270 3,5 C 5,1 C
30.03.2012 03:22 6,9 C 79 % 1011,5 hPa 0,0 l/m 16,9 km/h (3 Bft) W 270 3,5 C 3,8 C
30.03.2012 03:27 7,0 C 79 % 1011,6 hPa 0,0 l/m 6,8 km/h (2 Bft) N 360 3,6 C 5,8 C
30.03.2012 03:32 7,1 C 79 % 1011,6 hPa 0,0 l/m 12,2 km/h (2 Bft) W 270 3,7 C 4,8 C
30.03.2012 03:37 7,2 C 79 % 1011,5 hPa 0,0 l/m 10,1 km/h (2 Bft) W-NW 292 3,8 C 5,3 C
30.03.2012 03:42 7,2 C 79 % 1011,5 hPa 0,0 l/m 10,8 km/h (2 Bft) W-NW 292 3,8 C 5,1 C
30.03.2012 03:47 7,2 C 79 % 1011,4 hPa 0,0 l/m 18,4 km/h (3 Bft) W-NW 292 3,8 C 4,0 C
30.03.2012 03:52 7,2 C 78 % 1011,5 hPa 0,0 l/m 11,2 km/h (2 Bft) W-NW 292 3,6 C 5,1 C
30.03.2012 03:57 7,2 C 78 % 1011,5 hPa 0,0 l/m 8,6 km/h (2 Bft) W-SW 247 3,6 C 5,6 C
30.03.2012 04:02 7,3 C 78 % 1011,5 hPa 0,0 l/m 14,4 km/h (3 Bft) W 270 3,7 C 4,7 C
30.03.2012 04:07 7,3 C 78 % 1011,4 hPa 0,0 l/m 20,2 km/h (4 Bft) NW 315 3,7 C 3,9 C
30.03.2012 04:12 7,3 C 78 % 1011,2 hPa 0,0 l/m 13,0 km/h (3 Bft) W-NW 292 3,7 C 4,9 C
30.03.2012 04:17 7,3 C 77 % 1011,1 hPa 0,0 l/m 14,4 km/h (3 Bft) NW 315 3,5 C 4,7 C
30.03.2012 04:22 7,3 C 77 % 1011,2 hPa 0,0 l/m 14,8 km/h (3 Bft) W 270 3,5 C 4,6 C
30.03.2012 04:27 7,3 C 77 % 1011,2 hPa 0,0 l/m 14,8 km/h (3 Bft) W-NW 292 3,5 C 4,6 C
30.03.2012 04:32 7,3 C 77 % 1011,2 hPa 0,0 l/m 16,6 km/h (3 Bft) W 270 3,5 C 4,4 C
30.03.2012 04:37 7,3 C 77 % 1011,2 hPa 0,0 l/m 11,9 km/h (2 Bft) N-NW 337 3,5 C 5,1 C
30.03.2012 04:42 7,3 C 77 % 1011,3 hPa 0,0 l/m 13,7 km/h (3 Bft) NW 315 3,5 C 4,8 C
30.03.2012 04:47 7,3 C 77 % 1011,4 hPa 0,0 l/m 9,7 km/h (2 Bft) W-NW 292 3,5 C 5,5 C
30.03.2012 04:52 7,3 C 77 % 1011,5 hPa 0,0 l/m 12,6 km/h (3 Bft) NO 45 3,5 C 4,9 C
30.03.2012 04:57 7,3 C 77 % 1011,3 hPa 0,0 l/m 8,6 km/h (2 Bft) O-NO 67 3,5 C 5,7 C
30.03.2012 05:02 7,3 C 77 % 1011,2 hPa 0,0 l/m 8,3 km/h (2 Bft) W-NW 292 3,5 C 5,8 C
30.03.2012 05:07 7,3 C 77 % 1011,2 hPa 0,0 l/m 15,8 km/h (3 Bft) SW 225 3,5 C 4,5 C
30.03.2012 05:12 7,3 C 77 % 1011,2 hPa 0,0 l/m 10,4 km/h (2 Bft) W-SW 247 3,5 C 5,3 C
30.03.2012 05:17 7,3 C 77 % 1011,1 hPa 0,0 l/m 14,0 km/h (3 Bft) NW 315 3,5 C 4,7 C
30.03.2012 05:22 7,3 C 77 % 1011,1 hPa 0,0 l/m 13,0 km/h (3 Bft) W 270 3,5 C 4,9 C
30.03.2012 05:27 7,3 C 76 % 1011,2 hPa 0,0 l/m 13,7 km/h (3 Bft) NW 315 3,4 C 4,8 C
30.03.2012 05:32 7,3 C 76 % 1011,2 hPa 0,0 l/m 11,2 km/h (2 Bft) NW 315 3,4 C 5,2 C
30.03.2012 05:37 7,3 C 76 % 1011,1 hPa 0,0 l/m 24,5 km/h (4 Bft) NW 315 3,4 C 3,5 C
30.03.2012 05:42 7,3 C 76 % 1011,1 hPa 0,0 l/m 6,1 km/h (2 Bft) W 270 3,4 C 6,3 C
30.03.2012 05:47 7,3 C 76 % 1011,2 hPa 0,0 l/m 18,4 km/h (3 Bft) W-NW 292 3,4 C 4,2 C
30.03.2012 05:52 7,3 C 76 % 1011,2 hPa 0,0 l/m 10,1 km/h (2 Bft) W-NW 292 3,4 C 5,4 C
30.03.2012 05:57 7,2 C 76 % 1011,2 hPa 0,0 l/m 10,1 km/h (2 Bft) NW 315 3,3 C 5,3 C
30.03.2012 06:02 7,3 C 75 % 1011,3 hPa 0,0 l/m 9,7 km/h (2 Bft) W 270 3,2 C 5,5 C
30.03.2012 06:07 7,2 C 75 % 1011,3 hPa 0,0 l/m 12,6 km/h (3 Bft) NW 315 3,1 C 4,8 C
30.03.2012 06:12 7,2 C 75 % 1011,3 hPa 0,0 l/m 10,8 km/h (2 Bft) W 270 3,1 C 5,1 C
30.03.2012 06:17 7,2 C 75 % 1011,3 hPa 0,0 l/m 16,9 km/h (3 Bft) NW 315 3,1 C 4,2 C
30.03.2012 06:22 7,2 C 76 % 1011,2 hPa 0,0 l/m 5,4 km/h (1 Bft) W-NW 292 3,3 C 6,4 C
30.03.2012 06:27 7,2 C 76 % 1011,0 hPa 0,0 l/m 7,2 km/h (2 Bft) W-NW 292 3,3 C 5,9 C
30.03.2012 06:32 7,2 C 76 % 1011,1 hPa 0,0 l/m 6,1 km/h (2 Bft) NW 315 3,3 C 6,2 C
30.03.2012 06:37 7,2 C 76 % 1011,1 hPa 0,0 l/m 10,8 km/h (2 Bft) W-SW 247 3,3 C 5,1 C
30.03.2012 06:42 7,2 C 75 % 1011,0 hPa 0,0 l/m 8,3 km/h (2 Bft) NW 315 3,1 C 5,6 C
30.03.2012 06:47 7,2 C 75 % 1011,1 hPa 0,0 l/m 18,7 km/h (3 Bft) NW 315 3,1 C 4,0 C
30.03.2012 06:52 7,2 C 75 % 1011,2 hPa 0,0 l/m 7,2 km/h (2 Bft) NW 315 3,1 C 5,9 C
30.03.2012 06:57 7,2 C 76 % 1011,1 hPa 0,0 l/m 16,2 km/h (3 Bft) NW 315 3,3 C 4,3 C
30.03.2012 07:02 7,2 C 76 % 1011,2 hPa 0,0 l/m 18,0 km/h (3 Bft) W-NW 292 3,3 C 4,1 C
30.03.2012 07:07 7,2 C 76 % 1011,1 hPa 0,0 l/m 8,6 km/h (2 Bft) W 270 3,3 C 5,6 C
30.03.2012 07:12 7,2 C 76 % 1011,3 hPa 0,0 l/m 10,4 km/h (2 Bft) NW 315 3,3 C 5,2 C
30.03.2012 07:17 7,2 C 76 % 1011,3 hPa 0,0 l/m 10,4 km/h (2 Bft) W-NW 292 3,3 C 5,2 C
30.03.2012 07:22 7,2 C 77 % 1011,1 hPa 0,0 l/m 12,6 km/h (3 Bft) NW 315 3,4 C 4,8 C
30.03.2012 07:27 7,2 C 76 % 1011,3 hPa 0,0 l/m 10,4 km/h (2 Bft) NW 315 3,3 C 5,2 C
30.03.2012 07:32 7,2 C 76 % 1011,4 hPa 0,0 l/m 13,3 km/h (3 Bft) NW 315 3,3 C 4,7 C
30.03.2012 07:37 7,2 C 76 % 1011,3 hPa 0,0 l/m 22,0 km/h (4 Bft) N 360 3,3 C 3,6 C
30.03.2012 07:42 7,2 C 76 % 1011,1 hPa 0,0 l/m 12,6 km/h (3 Bft) N-NW 337 3,3 C 4,8 C
30.03.2012 07:47 7,2 C 76 % 1011,2 hPa 0,0 l/m 16,9 km/h (3 Bft) W-NW 292 3,3 C 4,2 C
30.03.2012 07:52 7,3 C 77 % 1011,2 hPa 0,0 l/m 8,3 km/h (2 Bft) NW 315 3,5 C 5,8 C
30.03.2012 07:57 7,3 C 77 % 1011,0 hPa 0,0 l/m 6,5 km/h (2 Bft) NW 315 3,5 C 6,2 C
30.03.2012 08:02 7,3 C 77 % 1011,3 hPa 0,0 l/m 6,5 km/h (2 Bft) W-NW 292 3,5 C 6,2 C
30.03.2012 08:07 7,3 C 77 % 1011,1 hPa 0,0 l/m 10,4 km/h (2 Bft) W 270 3,5 C 5,3 C
30.03.2012 08:12 7,4 C 77 % 1011,0 hPa 0,0 l/m 7,6 km/h (2 Bft) O-NO 67 3,6 C 6,0 C
30.03.2012 08:17 7,6 C 77 % 1011,0 hPa 0,0 l/m 5,0 km/h (1 Bft) NW 315 3,8 C 7,0 C
30.03.2012 08:22 7,6 C 77 % 1011,0 hPa 0,0 l/m 21,6 km/h (4 Bft) W-NW 292 3,8 C 4,2 C
30.03.2012 08:27 7,7 C 78 % 1011,1 hPa 0,0 l/m 15,5 km/h (3 Bft) W-SW 247 4,1 C 5,0 C
30.03.2012 08:32 7,8 C 78 % 1011,1 hPa 0,0 l/m 8,3 km/h (2 Bft) W-NW 292 4,2 C 6,4 C
30.03.2012 08:37 7,8 C 78 % 1011,1 hPa 0,0 l/m 14,0 km/h (3 Bft) W-SW 247 4,2 C 5,3 C
30.03.2012 08:42 7,9 C 78 % 1011,1 hPa 0,0 l/m 15,5 km/h (3 Bft) W-NW 292 4,3 C 5,3 C
30.03.2012 08:47 7,9 C 78 % 1011,1 hPa 0,0 l/m 13,3 km/h (3 Bft) W 270 4,3 C 5,6 C
30.03.2012 08:52 7,9 C 79 % 1011,0 hPa 0,0 l/m 19,8 km/h (3 Bft) W 270 4,5 C 4,7 C
30.03.2012 08:57 8,1 C 79 % 1011,0 hPa 0,0 l/m 18,7 km/h (3 Bft) W 270 4,7 C 5,1 C
30.03.2012 09:02 8,1 C 79 % 1011,0 hPa 0,0 l/m 6,8 km/h (2 Bft) W 270 4,7 C 7,1 C
30.03.2012 09:07 8,1 C 80 % 1011,1 hPa 0,0 l/m 13,7 km/h (3 Bft) N-NW 337 4,9 C 5,8 C
30.03.2012 09:12 8,0 C 80 % 1011,2 hPa 0,0 l/m 17,3 km/h (3 Bft) W-NW 292 4,8 C 5,2 C
30.03.2012 09:17 7,9 C 81 % 1011,1 hPa 0,0 l/m 23,0 km/h (4 Bft) NW 315 4,8 C 4,4 C
30.03.2012 09:22 7,9 C 82 % 1011,2 hPa 0,0 l/m 15,1 km/h (3 Bft) W-NW 292 5,0 C 5,3 C
30.03.2012 09:27 7,9 C 83 % 1011,2 hPa 0,0 l/m 16,6 km/h (3 Bft) W 270 5,2 C 5,1 C
30.03.2012 09:32 7,8 C 83 % 1011,3 hPa 0,0 l/m 16,6 km/h (3 Bft) W-NW 292 5,1 C 5,0 C
30.03.2012 09:37 7,8 C 83 % 1011,2 hPa 0,0 l/m 17,3 km/h (3 Bft) W 270 5,1 C 4,9 C
30.03.2012 09:42 7,8 C 84 % 1011,1 hPa 0,0 l/m 14,0 km/h (3 Bft) W-NW 292 5,3 C 5,3 C
30.03.2012 09:47 7,8 C 84 % 1011,1 hPa 0,0 l/m 7,9 km/h (2 Bft) W-NW 292 5,3 C 6,4 C
30.03.2012 09:52 7,8 C 84 % 1011,0 hPa 0,0 l/m 10,1 km/h (2 Bft) W-SW 247 5,3 C 6,0 C
30.03.2012 09:57 7,9 C 85 % 1011,0 hPa 0,0 l/m 15,5 km/h (3 Bft) W-NW 292 5,5 C 5,3 C
30.03.2012 10:02 7,9 C 85 % 1011,0 hPa 0,0 l/m 19,1 km/h (3 Bft) W-NW 292 5,5 C 4,8 C
30.03.2012 10:07 7,9 C 85 % 1010,9 hPa 0,5 l/m 8,3 km/h (2 Bft) W-NW 292 5,5 C 6,5 C
30.03.2012 10:12 7,9 C 86 % 1010,9 hPa 0,0 l/m 15,1 km/h (3 Bft) W-NW 292 5,7 C 5,3 C
30.03.2012 10:17 7,9 C 86 % 1010,9 hPa 0,0 l/m 11,5 km/h (2 Bft) N-NW 337 5,7 C 5,9 C
30.03.2012 10:22 8,1 C 86 % 1010,9 hPa 0,0 l/m 14,8 km/h (3 Bft) W-NW 292 5,9 C 5,6 C
30.03.2012 10:27 8,2 C 86 % 1010,8 hPa 0,0 l/m 18,4 km/h (3 Bft) W 270 6,0 C 5,3 C
30.03.2012 10:32 8,3 C 86 % 1010,6 hPa 0,0 l/m 15,5 km/h (3 Bft) W-NW 292 6,1 C 5,8 C
30.03.2012 10:37 8,3 C 86 % 1010,8 hPa 0,0 l/m 13,7 km/h (3 Bft) W-SW 247 6,1 C 6,0 C
30.03.2012 10:42 8,3 C 85 % 1010,8 hPa 0,0 l/m 23,4 km/h (4 Bft) W-NW 292 5,9 C 4,9 C
30.03.2012 10:47 8,4 C 86 % 1010,8 hPa 0,0 l/m 22,0 km/h (4 Bft) W-NW 292 6,2 C 5,2 C
30.03.2012 10:52 8,3 C 85 % 1010,9 hPa 0,0 l/m 21,6 km/h (4 Bft) NW 315 5,9 C 5,1 C
30.03.2012 10:57 8,4 C 85 % 1010,9 hPa 0,0 l/m 23,4 km/h (4 Bft) W 270 6,0 C 5,0 C
30.03.2012 11:02 8,5 C 85 % 1010,9 hPa 0,0 l/m 13,0 km/h (3 Bft) NW 315 6,1 C 6,3 C
30.03.2012 11:07 8,8 C 85 % 1010,9 hPa 0,0 l/m 16,6 km/h (3 Bft) N-NW 337 6,4 C 6,2 C
30.03.2012 11:12 8,9 C 84 % 1010,9 hPa 0,0 l/m 12,6 km/h (3 Bft) W 270 6,3 C 6,9 C
30.03.2012 11:17 9,0 C 83 % 1010,9 hPa 0,0 l/m 17,6 km/h (3 Bft) NW 315 6,3 C 6,4 C
30.03.2012 11:22 9,2 C 82 % 1010,8 hPa 0,0 l/m 28,1 km/h (4 Bft) W-NW 292 6,3 C 5,7 C
30.03.2012 11:27 9,1 C 81 % 1010,9 hPa 0,0 l/m 29,9 km/h (5 Bft) W-NW 292 6,0 C 5,4 C
30.03.2012 11:32 8,9 C 80 % 1010,7 hPa 0,0 l/m 16,2 km/h (3 Bft) W-SW 247 5,6 C 6,4 C
30.03.2012 11:37 8,9 C 80 % 1010,8 hPa 0,0 l/m 21,6 km/h (4 Bft) W-NW 292 5,6 C 5,8 C
30.03.2012 11:42 8,9 C 80 % 1010,6 hPa 0,0 l/m 11,9 km/h (2 Bft) NW 315 5,6 C 7,0 C
30.03.2012 11:47 8,9 C 79 % 1010,6 hPa 0,0 l/m 4,3 km/h (1 Bft) N-NO 22 5,5 C 8,9 C
30.03.2012 11:52 9,1 C 79 % 1010,6 hPa 0,0 l/m 19,1 km/h (3 Bft) N-NW 337 5,7 C 6,3 C
30.03.2012 11:57 9,3 C 78 % 1010,6 hPa 0,0 l/m 18,0 km/h (3 Bft) NW 315 5,7 C 6,7 C
30.03.2012 12:02 9,3 C 78 % 1010,6 hPa 0,0 l/m 15,5 km/h (3 Bft) NW 315 5,7 C 7,0 C
30.03.2012 12:07 9,3 C 77 % 1010,4 hPa 0,0 l/m 4,0 km/h (1 Bft) SW 225 5,5 C 9,3 C
30.03.2012 12:12 9,1 C 78 % 1010,5 hPa 0,0 l/m 18,7 km/h (3 Bft) NW 315 5,5 C 6,4 C
30.03.2012 12:17 8,9 C 78 % 1010,5 hPa 0,0 l/m 16,2 km/h (3 Bft) W 270 5,3 C 6,4 C
30.03.2012 12:22 9,0 C 78 % 1010,4 hPa 0,0 l/m 9,7 km/h (2 Bft) W-NW 292 5,4 C 7,5 C
30.03.2012 12:27 9,1 C 78 % 1010,4 hPa 0,0 l/m 22,0 km/h (4 Bft) W-NW 292 5,5 C 6,0 C
30.03.2012 12:32 9,1 C 77 % 1010,4 hPa 0,0 l/m 13,7 km/h (3 Bft) W-NW 292 5,3 C 7,0 C
30.03.2012 12:37 9,1 C 77 % 1010,1 hPa 0,0 l/m 22,7 km/h (4 Bft) NW 315 5,3 C 6,0 C
30.03.2012 12:42 9,1 C 77 % 1010,2 hPa 0,0 l/m 24,5 km/h (4 Bft) W 270 5,3 C 5,8 C
30.03.2012 12:47 9,1 C 77 % 1010,1 hPa 0,0 l/m 23,4 km/h (4 Bft) W-NW 292 5,3 C 5,9 C
30.03.2012 12:52 9,1 C 76 % 1010,1 hPa 0,0 l/m 31,7 km/h (5 Bft) W-NW 292 5,1 C 5,3 C
30.03.2012 12:57 9,1 C 76 % 1010,2 hPa 0,0 l/m 22,3 km/h (4 Bft) W-NW 292 5,1 C 6,0 C
30.03.2012 13:02 9,0 C 75 % 1010,2 hPa 0,0 l/m 15,1 km/h (3 Bft) W 270 4,8 C 6,7 C
30.03.2012 13:07 9,0 C 76 % 1009,9 hPa 0,0 l/m 30,6 km/h (5 Bft) W-SW 247 5,0 C 5,2 C
30.03.2012 13:12 9,0 C 75 % 1010,1 hPa 0,0 l/m 21,6 km/h (4 Bft) NW 315 4,8 C 6,0 C
30.03.2012 13:17 9,1 C 75 % 1010,1 hPa 0,0 l/m 21,2 km/h (4 Bft) W 270 4,9 C 6,1 C
30.03.2012 13:22 9,1 C 74 % 1010,1 hPa 0,0 l/m 29,2 km/h (5 Bft) W-NW 292 4,7 C 5,5 C
30.03.2012 13:27 9,1 C 74 % 1010,2 hPa 0,0 l/m 17,6 km/h (3 Bft) W 270 4,7 C 6,5 C
30.03.2012 13:32 9,2 C 74 % 1010,2 hPa 0,0 l/m 23,0 km/h (4 Bft) W-NW 292 4,8 C 6,1 C
30.03.2012 13:37 9,3 C 73 % 1010,2 hPa 0,0 l/m 20,9 km/h (4 Bft) NW 315 4,7 C 6,4 C
30.03.2012 13:42 9,3 C 73 % 1010,3 hPa 0,0 l/m 20,2 km/h (4 Bft) W 270 4,7 C 6,5 C
30.03.2012 13:47 9,3 C 71 % 1010,3 hPa 0,0 l/m 11,5 km/h (2 Bft) W-NW 292 4,3 C 7,5 C
30.03.2012 13:52 9,3 C 71 % 1010,0 hPa 0,0 l/m 12,6 km/h (3 Bft) W 270 4,3 C 7,4 C
30.03.2012 13:57 9,3 C 70 % 1010,2 hPa 0,0 l/m 16,2 km/h (3 Bft) NW 315 4,1 C 6,9 C
30.03.2012 14:02 9,4 C 70 % 1010,0 hPa 0,0 l/m 8,3 km/h (2 Bft) W-NW 292 4,2 C 8,2 C
30.03.2012 14:07 9,6 C 69 % 1010,0 hPa 0,0 l/m 21,2 km/h (4 Bft) W-NW 292 4,2 C 6,8 C
30.03.2012 14:12 9,8 C 69 % 1010,0 hPa 0,0 l/m 12,6 km/h (3 Bft) W-NW 292 4,4 C 8,0 C
30.03.2012 14:17 9,6 C 68 % 1010,0 hPa 0,0 l/m 9,4 km/h (2 Bft) W-NW 292 4,0 C 8,3 C
30.03.2012 14:22 9,6 C 69 % 1009,9 hPa 0,0 l/m 8,3 km/h (2 Bft) W-NW 292 4,2 C 8,5 C
30.03.2012 14:27 9,8 C 68 % 1009,9 hPa 0,0 l/m 22,0 km/h (4 Bft) NW 315 4,2 C 6,9 C
30.03.2012 14:32 9,8 C 68 % 1010,0 hPa 0,0 l/m 11,5 km/h (2 Bft) W 270 4,2 C 8,1 C
30.03.2012 14:37 9,9 C 68 % 1010,0 hPa 0,0 l/m 7,2 km/h (2 Bft) W-NW 292 4,3 C 9,1 C
30.03.2012 14:42 9,9 C 67 % 1010,0 hPa 0,0 l/m 11,5 km/h (2 Bft) W-NW 292 4,1 C 8,3 C
30.03.2012 14:47 9,9 C 67 % 1009,8 hPa 0,0 l/m 17,6 km/h (3 Bft) W 270 4,1 C 7,5 C
30.03.2012 14:52 9,9 C 66 % 1009,7 hPa 0,0 l/m 10,8 km/h (2 Bft) O-NO 67 3,9 C 8,4 C
30.03.2012 14:57 10,1 C 66 % 1009,6 hPa 0,0 l/m 17,3 km/h (3 Bft) W 270 4,0 C 10,1 C
30.03.2012 15:02 10,1 C 65 % 1009,7 hPa 0,0 l/m 9,4 km/h (2 Bft) NW 315 3,8 C 10,1 C
30.03.2012 15:07 10,2 C 65 % 1009,8 hPa 0,0 l/m 29,5 km/h (5 Bft) W-NW 292 3,9 C 10,2 C
30.03.2012 15:12 10,3 C 63 % 1009,8 hPa 0,0 l/m 24,1 km/h (4 Bft) NW 315 3,6 C 10,3 C
30.03.2012 15:17 10,3 C 63 % 1009,7 hPa 0,0 l/m 16,2 km/h (3 Bft) W-NW 292 3,6 C 10,3 C
30.03.2012 15:22 10,4 C 63 % 1009,7 hPa 0,0 l/m 22,0 km/h (4 Bft) W 270 3,7 C 10,4 C
30.03.2012 15:27 10,4 C 63 % 1009,8 hPa 0,0 l/m 16,6 km/h (3 Bft) N-NW 337 3,7 C 10,4 C
30.03.2012 15:32 10,4 C 63 % 1009,7 hPa 0,0 l/m 24,5 km/h (4 Bft) W-SW 247 3,7 C 10,4 C
30.03.2012 15:37 10,3 C 62 % 1009,6 hPa 0,0 l/m 23,4 km/h (4 Bft) W 270 3,3 C 10,3 C
30.03.2012 15:42 10,4 C 62 % 1009,8 hPa 0,0 l/m 16,6 km/h (3 Bft) W-NW 292 3,4 C 10,4 C
30.03.2012 15:47 10,4 C 62 % 1009,8 hPa 0,0 l/m 16,2 km/h (3 Bft) W-NW 292 3,4 C 10,4 C
30.03.2012 15:52 10,4 C 62 % 1009,8 hPa 0,0 l/m 19,8 km/h (3 Bft) W-NW 292 3,4 C 10,4 C
30.03.2012 15:57 10,5 C 61 % 1009,8 hPa 0,0 l/m 14,0 km/h (3 Bft) W-NW 292 3,3 C 10,5 C
30.03.2012 16:02 10,5 C 61 % 1009,8 hPa 0,0 l/m 18,0 km/h (3 Bft) W 270 3,3 C 10,5 C
30.03.2012 16:07 10,5 C 61 % 1009,8 hPa 0,0 l/m 16,2 km/h (3 Bft) N-NW 337 3,3 C 10,5 C
30.03.2012 16:12 10,4 C 60 % 1009,6 hPa 0,0 l/m 20,9 km/h (4 Bft) W-NW 292 3,0 C 10,4 C
30.03.2012 16:17 10,4 C 60 % 1009,6 hPa 0,0 l/m 21,2 km/h (4 Bft) W 270 3,0 C 10,4 C
30.03.2012 16:22 10,4 C 60 % 1009,4 hPa 0,0 l/m 11,9 km/h (2 Bft) NW 315 3,0 C 10,4 C
30.03.2012 16:27 10,4 C 61 % 1009,5 hPa 0,0 l/m 16,9 km/h (3 Bft) W 270 3,2 C 10,4 C
30.03.2012 16:32 10,4 C 61 % 1009,4 hPa 0,0 l/m 13,0 km/h (3 Bft) W 270 3,2 C 10,4 C
30.03.2012 16:37 10,5 C 61 % 1009,4 hPa 0,0 l/m 26,3 km/h (4 Bft) W 270 3,3 C 10,5 C
30.03.2012 16:42 10,5 C 61 % 1009,5 hPa 0,0 l/m 26,6 km/h (4 Bft) N-NW 337 3,3 C 10,5 C
30.03.2012 16:47 10,4 C 60 % 1009,6 hPa 0,0 l/m 22,0 km/h (4 Bft) W 270 3,0 C 10,4 C
30.03.2012 16:52 10,4 C 60 % 1009,5 hPa 0,0 l/m 30,6 km/h (5 Bft) W-NW 292 3,0 C 10,4 C
30.03.2012 16:57 10,5 C 60 % 1009,4 hPa 0,0 l/m 20,5 km/h (4 Bft) W-NW 292 3,1 C 10,5 C
30.03.2012 17:02 10,6 C 60 % 1009,3 hPa 0,0 l/m 26,6 km/h (4 Bft) W 270 3,2 C 10,6 C
30.03.2012 17:07 10,7 C 60 % 1009,4 hPa 0,0 l/m 13,0 km/h (3 Bft) W-NW 292 3,3 C 10,7 C
30.03.2012 17:12 10,8 C 59 % 1009,4 hPa 0,0 l/m 32,8 km/h (5 Bft) W-NW 292 3,1 C 10,8 C
30.03.2012 17:17 10,7 C 59 % 1009,5 hPa 0,0 l/m 35,6 km/h (5 Bft) NW 315 3,0 C 10,7 C
30.03.2012 17:22 10,6 C 59 % 1009,4 hPa 0,0 l/m 11,2 km/h (2 Bft) W-NW 292 2,9 C 10,6 C
30.03.2012 17:27 10,5 C 59 % 1009,3 hPa 0,0 l/m 13,3 km/h (3 Bft) W-NW 292 2,8 C 10,5 C
30.03.2012 17:32 10,6 C 59 % 1009,2 hPa 0,0 l/m 13,7 km/h (3 Bft) W-NW 292 2,9 C 10,6 C
30.03.2012 17:37 10,6 C 60 % 1009,2 hPa 0,0 l/m 17,6 km/h (3 Bft) NW 315 3,2 C 10,6 C
30.03.2012 17:42 10,5 C 60 % 1009,3 hPa 0,0 l/m 15,5 km/h (3 Bft) NW 315 3,1 C 10,5 C
30.03.2012 17:47 10,4 C 59 % 1009,3 hPa 0,0 l/m 23,4 km/h (4 Bft) W 270 2,7 C 10,4 C
30.03.2012 17:52 10,3 C 60 % 1009,3 hPa 0,0 l/m 27,4 km/h (4 Bft) NW 315 2,9 C 10,3 C
30.03.2012 17:57 10,3 C 60 % 1009,2 hPa 0,0 l/m 17,6 km/h (3 Bft) NW 315 2,9 C 10,3 C
30.03.2012 18:02 10,3 C 59 % 1009,2 hPa 0,0 l/m 24,5 km/h (4 Bft) W-NW 292 2,6 C 10,3 C
30.03.2012 18:07 10,1 C 60 % 1009,2 hPa 0,0 l/m 12,2 km/h (2 Bft) NW 315 2,7 C 10,1 C
30.03.2012 18:12 10,1 C 60 % 1009,2 hPa 0,0 l/m 21,2 km/h (4 Bft) W-NW 292 2,7 C 10,1 C
30.03.2012 18:17 10,1 C 60 % 1009,3 hPa 0,0 l/m 24,1 km/h (4 Bft) NW 315 2,7 C 10,1 C
30.03.2012 18:22 10,1 C 60 % 1009,2 hPa 0,0 l/m 29,2 km/h (5 Bft) W-NW 292 2,7 C 10,1 C
30.03.2012 18:27 10,0 C 61 % 1009,2 hPa 0,0 l/m 12,2 km/h (2 Bft) NW 315 2,8 C 8,3 C
30.03.2012 18:32 10,0 C 60 % 1009,2 hPa 0,0 l/m 14,8 km/h (3 Bft) W-NW 292 2,6 C 7,9 C
30.03.2012 18:37 9,9 C 61 % 1009,2 hPa 0,0 l/m 33,5 km/h (5 Bft) W 270 2,7 C 6,2 C
30.03.2012 18:42 9,9 C 61 % 1009,3 hPa 0,0 l/m 22,0 km/h (4 Bft) NW 315 2,7 C 7,1 C
30.03.2012 18:47 9,9 C 62 % 1009,2 hPa 0,0 l/m 15,5 km/h (3 Bft) W-NW 292 3,0 C 7,7 C
30.03.2012 18:52 9,8 C 62 % 1009,3 hPa 0,0 l/m 24,5 km/h (4 Bft) W-NW 292 2,9 C 6,7 C
30.03.2012 18:57 9,8 C 62 % 1009,3 hPa 0,0 l/m 19,8 km/h (3 Bft) N-NW 337 2,9 C 7,1 C
30.03.2012 19:02 9,7 C 63 % 1009,4 hPa 0,0 l/m 20,2 km/h (4 Bft) N-NW 337 3,0 C 7,0 C
30.03.2012 19:07 9,7 C 63 % 1009,5 hPa 0,0 l/m 10,4 km/h (2 Bft) S-SW 202 3,0 C 8,2 C
30.03.2012 19:12 9,6 C 64 % 1009,4 hPa 0,0 l/m 27,4 km/h (4 Bft) NW 315 3,1 C 6,2 C
30.03.2012 19:17 9,6 C 64 % 1009,4 hPa 0,0 l/m 18,0 km/h (3 Bft) W-NW 292 3,1 C 7,1 C
30.03.2012 19:22 9,5 C 64 % 1009,4 hPa 0,0 l/m 16,2 km/h (3 Bft) W 270 3,0 C 7,2 C
30.03.2012 19:27 9,4 C 65 % 1009,4 hPa 0,0 l/m 27,4 km/h (4 Bft) W-SW 247 3,2 C 6,0 C
30.03.2012 19:32 9,4 C 66 % 1009,4 hPa 0,0 l/m 23,0 km/h (4 Bft) W 270 3,4 C 6,3 C
30.03.2012 19:37 9,3 C 66 % 1009,3 hPa 0,0 l/m 27,4 km/h (4 Bft) N-NW 337 3,3 C 5,9 C
30.03.2012 19:42 9,3 C 67 % 1009,5 hPa 0,0 l/m 20,5 km/h (4 Bft) NW 315 3,5 C 6,4 C
30.03.2012 19:47 9,3 C 67 % 1009,5 hPa 0,0 l/m 15,8 km/h (3 Bft) W-NW 292 3,5 C 7,0 C
30.03.2012 19:52 9,2 C 67 % 1009,5 hPa 0,0 l/m 18,0 km/h (3 Bft) W 270 3,4 C 6,6 C
30.03.2012 19:57 9,1 C 68 % 1009,5 hPa 0,0 l/m 10,1 km/h (2 Bft) W 270 3,5 C 7,5 C
30.03.2012 20:02 9,1 C 68 % 1009,6 hPa 0,0 l/m 18,0 km/h (3 Bft) W 270 3,5 C 6,5 C
30.03.2012 20:07 9,0 C 69 % 1009,4 hPa 0,0 l/m 27,7 km/h (4 Bft) W-NW 292 3,6 C 5,4 C
30.03.2012 20:12 9,0 C 69 % 1009,2 hPa 0,0 l/m 19,8 km/h (3 Bft) NW 315 3,6 C 6,1 C
30.03.2012 20:17 9,0 C 70 % 1009,3 hPa 0,0 l/m 23,0 km/h (4 Bft) W-NW 292 3,8 C 5,8 C
30.03.2012 20:22 9,0 C 70 % 1009,3 hPa 0,0 l/m 12,2 km/h (2 Bft) NW 315 3,8 C 7,1 C
30.03.2012 20:27 8,9 C 70 % 1009,3 hPa 0,0 l/m 23,4 km/h (4 Bft) W-NW 292 3,7 C 5,7 C
30.03.2012 20:32 9,0 C 71 % 1009,4 hPa 0,0 l/m 30,6 km/h (5 Bft) NW 315 4,0 C 5,2 C
30.03.2012 20:37 9,0 C 71 % 1009,3 hPa 0,0 l/m 9,4 km/h (2 Bft) W-NW 292 4,0 C 7,5 C
30.03.2012 20:42 9,0 C 71 % 1009,3 hPa 0,0 l/m 19,1 km/h (3 Bft) W 270 4,0 C 6,2 C
30.03.2012 20:47 9,0 C 71 % 1009,4 hPa 0,0 l/m 21,6 km/h (4 Bft) W-NW 292 4,0 C 6,0 C
30.03.2012 20:52 9,0 C 72 % 1009,4 hPa 0,0 l/m 25,2 km/h (4 Bft) W-NW 292 4,2 C 5,6 C
30.03.2012 20:57 9,0 C 72 % 1009,5 hPa 0,0 l/m 13,7 km/h (3 Bft) NW 315 4,2 C 6,9 C
30.03.2012 21:02 9,0 C 72 % 1009,4 hPa 0,0 l/m 19,1 km/h (3 Bft) W 270 4,2 C 6,2 C
30.03.2012 21:07 9,0 C 72 % 1009,4 hPa 0,0 l/m 20,9 km/h (4 Bft) NW 315 4,2 C 6,0 C
30.03.2012 21:12 9,0 C 73 % 1009,3 hPa 0,0 l/m 19,4 km/h (3 Bft) N-NW 337 4,4 C 6,2 C
30.03.2012 21:17 9,0 C 73 % 1009,2 hPa 0,0 l/m 15,8 km/h (3 Bft) W 270 4,4 C 6,6 C
30.03.2012 21:22 9,0 C 73 % 1009,2 hPa 0,0 l/m 16,9 km/h (3 Bft) W-NW 292 4,4 C 6,4 C
30.03.2012 21:27 9,0 C 73 % 1009,2 hPa 0,0 l/m 23,0 km/h (4 Bft) NW 315 4,4 C 5,8 C
30.03.2012 21:32 9,0 C 74 % 1009,3 hPa 0,0 l/m 18,7 km/h (3 Bft) W-NW 292 4,6 C 6,2 C
30.03.2012 21:37 9,1 C 74 % 1009,2 hPa 0,0 l/m 16,9 km/h (3 Bft) W-NW 292 4,7 C 6,6 C
30.03.2012 21:42 9,1 C 74 % 1009,2 hPa 0,0 l/m 18,0 km/h (3 Bft) W 270 4,7 C 6,5 C
30.03.2012 21:47 9,0 C 75 % 1009,3 hPa 0,0 l/m 17,3 km/h (3 Bft) N-NW 337 4,8 C 6,4 C
30.03.2012 21:52 8,9 C 75 % 1009,2 hPa 0,0 l/m 16,9 km/h (3 Bft) W 270 4,7 C 6,3 C
30.03.2012 21:57 8,9 C 75 % 1009,1 hPa 0,0 l/m 20,5 km/h (4 Bft) NW 315 4,7 C 5,9 C
30.03.2012 22:02 8,9 C 75 % 1009,2 hPa 0,0 l/m 21,2 km/h (4 Bft) W-SW 247 4,7 C 5,9 C
30.03.2012 22:07 8,9 C 76 % 1009,1 hPa 0,0 l/m 13,3 km/h (3 Bft) NW 315 4,9 C 6,8 C
30.03.2012 22:12 8,9 C 76 % 1009,1 hPa 0,0 l/m 15,1 km/h (3 Bft) N 360 4,9 C 6,5 C
30.03.2012 22:17 8,8 C 76 % 1009,0 hPa 0,0 l/m 29,5 km/h (5 Bft) W-NW 292 4,8 C 5,0 C
30.03.2012 22:22 8,8 C 76 % 1008,9 hPa 0,0 l/m 16,9 km/h (3 Bft) W-NW 292 4,8 C 6,2 C
30.03.2012 22:27 8,8 C 76 % 1009,0 hPa 0,0 l/m 7,9 km/h (2 Bft) W 270 4,8 C 7,6 C
30.03.2012 22:32 8,7 C 76 % 1008,8 hPa 0,0 l/m 20,9 km/h (4 Bft) W 270 4,7 C 5,6 C
30.03.2012 22:37 8,6 C 76 % 1008,8 hPa 0,0 l/m 16,6 km/h (3 Bft) W-NW 292 4,6 C 6,0 C
30.03.2012 22:42 8,6 C 77 % 1008,8 hPa 0,0 l/m 23,4 km/h (4 Bft) W-NW 292 4,8 C 5,3 C
30.03.2012 22:47 8,5 C 77 % 1008,7 hPa 0,0 l/m 18,7 km/h (3 Bft) W 270 4,7 C 5,6 C
30.03.2012 22:52 8,5 C 77 % 1008,7 hPa 0,0 l/m 27,7 km/h (4 Bft) NW 315 4,7 C 4,8 C
30.03.2012 22:57 8,5 C 77 % 1008,7 hPa 0,0 l/m 19,8 km/h (3 Bft) W-NW 292 4,7 C 5,5 C
30.03.2012 23:02 8,5 C 78 % 1008,5 hPa 0,0 l/m 23,0 km/h (4 Bft) W-SW 247 4,9 C 5,2 C
30.03.2012 23:07 8,5 C 78 % 1008,4 hPa 0,0 l/m 18,4 km/h (3 Bft) NW 315 4,9 C 5,7 C
30.03.2012 23:12 8,5 C 78 % 1008,5 hPa 0,0 l/m 12,6 km/h (3 Bft) W-NW 292 4,9 C 6,4 C
30.03.2012 23:17 8,4 C 78 % 1008,3 hPa 0,0 l/m 25,6 km/h (4 Bft) W-NW 292 4,8 C 4,8 C
30.03.2012 23:22 8,4 C 79 % 1008,2 hPa 0,0 l/m 25,6 km/h (4 Bft) W 270 5,0 C 4,8 C
30.03.2012 23:27 8,4 C 79 % 1008,3 hPa 0,0 l/m 11,2 km/h (2 Bft) NW 315 5,0 C 6,5 C
30.03.2012 23:32 8,4 C 79 % 1008,3 hPa 0,0 l/m 16,9 km/h (3 Bft) NW 315 5,0 C 5,7 C
30.03.2012 23:37 8,3 C 79 % 1008,3 hPa 0,0 l/m 15,8 km/h (3 Bft) W-SW 247 4,9 C 5,7 C
30.03.2012 23:42 8,3 C 79 % 1008,3 hPa 0,0 l/m 21,6 km/h (4 Bft) W 270 4,9 C 5,1 C
30.03.2012 23:47 8,3 C 79 % 1008,1 hPa 0,0 l/m 21,6 km/h (4 Bft) NW 315 4,9 C 5,1 C
30.03.2012 23:52 8,3 C 79 % 1008,2 hPa 0,0 l/m 23,4 km/h (4 Bft) NW 315 4,9 C 4,9 C
30.03.2012 23:57 8,3 C 80 % 1008,2 hPa 0,0 l/m 25,6 km/h (4 Bft) W-NW 292 5,1 C 4,7 C
_ Min-Zeit 03:12 17:12 23:47 - 12:07 - - 00:47 03:12
Minimum _ 6,8 C 59 % 1008,1 hPa - 4,0 km/h (1 Bft) - - 2,4 C 2,9 C
_ Max-Zeit 17:12 10:12 00:07 10:07 17:17 - - 11:07 17:12
Maximum _ 10,8 C 86 % 1012,2 hPa 0,5 l/m 35,6 km/h
NW (5 Bft)
- - 6,4 C 10,8 C
Durchschnitt _ 8,5 C 73 % 1010,4 hPa #0,5 l/m 16,3 km/h (3 Bft) W-NW - 4,0 C 6,4 C
(c) by David Heller